CDG4742 ZYTL-ZSQD
Flight info
| Callsign | CDG4742 |
|---|---|
| Flight time | 0h 40m |
| Altitude | 19700 |
| Route | KARPI W5 HCH |
| Aircraft | B738/M-SDE2E3FGHIRWXY/LB1 |
Departure
| Time | 2026-04-22 10:06 |
|---|---|
| Airport | Dalian Zhoushuizi International Airport (ZYTL) |
Arrival
| Time | 2026-04-22 10:46 |
|---|---|
| Airport | Qingdao Jiaodong International Airport (ZSQD) |
| Time | Latitude | Longitude | Altitude | Speed | Heading |
|---|---|---|---|---|---|
| 2026-04-22 09:41 | 38.96339 | 121.52783 | 114 ft | 0 kts | 276° |
| 2026-04-22 09:58 | 38.96341 | 121.52772 | 114 ft | 3 kts | 276° |
| 2026-04-22 09:59 | 38.96367 | 121.52735 | 114 ft | 8 kts | 343° |
| 2026-04-22 09:59 | 38.96431 | 121.52740 | 114 ft | 8 kts | 22° |
| 2026-04-22 09:59 | 38.96451 | 121.52808 | 114 ft | 8 kts | 96° |
| 2026-04-22 09:59 | 38.96444 | 121.52893 | 114 ft | 11 kts | 96° |
| 2026-04-22 10:00 | 38.96435 | 121.53009 | 114 ft | 15 kts | 96° |
| 2026-04-22 10:00 | 38.96423 | 121.53159 | 114 ft | 18 kts | 96° |
| 2026-04-22 10:00 | 38.96433 | 121.53317 | 114 ft | 17 kts | 90° |
| 2026-04-22 10:00 | 38.96423 | 121.53474 | 114 ft | 17 kts | 95° |
| 2026-04-22 10:01 | 38.96409 | 121.53643 | 114 ft | 20 kts | 95° |
| 2026-04-22 10:01 | 38.96394 | 121.53843 | 114 ft | 23 kts | 96° |
| 2026-04-22 10:01 | 38.96377 | 121.54066 | 114 ft | 26 kts | 96° |
| 2026-04-22 10:01 | 38.96359 | 121.54305 | 114 ft | 26 kts | 96° |
| 2026-04-22 10:02 | 38.96341 | 121.54535 | 114 ft | 25 kts | 96° |
| 2026-04-22 10:02 | 38.96323 | 121.54759 | 114 ft | 24 kts | 96° |
| 2026-04-22 10:02 | 38.96307 | 121.54945 | 114 ft | 14 kts | 105° |
| 2026-04-22 10:02 | 38.96277 | 121.55061 | 114 ft | 13 kts | 96° |
| 2026-04-22 10:03 | 38.96268 | 121.55186 | 114 ft | 15 kts | 96° |
| 2026-04-22 10:03 | 38.96256 | 121.55337 | 114 ft | 18 kts | 96° |
| 2026-04-22 10:03 | 38.96243 | 121.55512 | 114 ft | 19 kts | 96° |
| 2026-04-22 10:03 | 38.96233 | 121.55647 | 114 ft | 10 kts | 95° |
| 2026-04-22 10:04 | 38.96263 | 121.55714 | 114 ft | 9 kts | 18° |
| 2026-04-22 10:04 | 38.96323 | 121.55722 | 114 ft | 8 kts | 5° |
| 2026-04-22 10:04 | 38.96381 | 121.55729 | 114 ft | 9 kts | 5° |
| 2026-04-22 10:04 | 38.96425 | 121.55701 | 114 ft | 7 kts | 285° |
| 2026-04-22 10:05 | 38.96428 | 121.55673 | 114 ft | 0 kts | 276° |
| 2026-04-22 10:05 | 38.96439 | 121.55514 | 114 ft | 49 kts | 276° |
| 2026-04-22 10:05 | 38.96495 | 121.54792 | 114 ft | 111 kts | 276° |
| 2026-04-22 10:06 | 38.96590 | 121.53558 | 148 ft | 158 kts | 276° |
| 2026-04-22 10:06 | 38.96690 | 121.52188 | 726 ft | 160 kts | 276° |
| 2026-04-22 10:06 | 38.96786 | 121.50738 | 1274 ft | 167 kts | 276° |
| 2026-04-22 10:06 | 38.96895 | 121.49226 | 1823 ft | 171 kts | 278° |
| 2026-04-22 10:07 | 38.97014 | 121.47712 | 2227 ft | 175 kts | 278° |
| 2026-04-22 10:07 | 38.97136 | 121.46139 | 2623 ft | 178 kts | 278° |
| 2026-04-22 10:07 | 38.97261 | 121.44537 | 3023 ft | 181 kts | 278° |
| 2026-04-22 10:07 | 38.97391 | 121.42911 | 3439 ft | 187 kts | 278° |
| 2026-04-22 10:08 | 38.97527 | 121.41197 | 3787 ft | 200 kts | 279° |
| 2026-04-22 10:08 | 38.97846 | 121.39409 | 4073 ft | 214 kts | 297° |
| 2026-04-22 10:08 | 38.98729 | 121.37841 | 4409 ft | 223 kts | 323° |
| 2026-04-22 10:08 | 39.00082 | 121.36811 | 4778 ft | 233 kts | 343° |
| 2026-04-22 10:09 | 39.01714 | 121.36507 | 5177 ft | 242 kts | 6° |
| 2026-04-22 10:09 | 39.03344 | 121.36935 | 5812 ft | 241 kts | 26° |
| 2026-04-22 10:09 | 39.04713 | 121.38150 | 6473 ft | 242 kts | 46° |
| 2026-04-22 10:09 | 39.05746 | 121.39864 | 7062 ft | 247 kts | 58° |
| 2026-04-22 10:10 | 39.06435 | 121.41949 | 7474 ft | 265 kts | 77° |
| 2026-04-22 10:10 | 39.06461 | 121.44353 | 8042 ft | 276 kts | 93° |
| 2026-04-22 10:10 | 39.06225 | 121.46835 | 8575 ft | 284 kts | 94° |
| 2026-04-22 10:10 | 39.05979 | 121.49346 | 9153 ft | 288 kts | 93° |
| 2026-04-22 10:11 | 39.05650 | 121.51903 | 9818 ft | 295 kts | 101° |
| 2026-04-22 10:11 | 39.04814 | 121.54342 | 10462 ft | 307 kts | 123° |
| 2026-04-22 10:11 | 39.03240 | 121.56211 | 11132 ft | 315 kts | 148° |
| 2026-04-22 10:11 | 39.01192 | 121.57256 | 11773 ft | 321 kts | 168° |
| 2026-04-22 10:12 | 38.98979 | 121.57558 | 12444 ft | 323 kts | 183° |
| 2026-04-22 10:12 | 38.96730 | 121.57277 | 12774 ft | 326 kts | 199° |
| 2026-04-22 10:12 | 38.94668 | 121.56078 | 12922 ft | 331 kts | 217° |
| 2026-04-22 10:12 | 38.92757 | 121.54384 | 13269 ft | 345 kts | 220° |
| 2026-04-22 10:13 | 38.90775 | 121.52537 | 13664 ft | 360 kts | 220° |
| 2026-04-22 10:13 | 38.88694 | 121.50643 | 14140 ft | 372 kts | 219° |
| 2026-04-22 10:13 | 38.86556 | 121.48756 | 14806 ft | 378 kts | 219° |
| 2026-04-22 10:13 | 38.84380 | 121.46888 | 15675 ft | 378 kts | 219° |
| 2026-04-22 10:14 | 38.82186 | 121.45033 | 16527 ft | 379 kts | 218° |
| 2026-04-22 10:14 | 38.79995 | 121.43190 | 17245 ft | 380 kts | 219° |
| 2026-04-22 10:14 | 38.77758 | 121.41305 | 17916 ft | 384 kts | 219° |
| 2026-04-22 10:14 | 38.75542 | 121.39437 | 18590 ft | 385 kts | 219° |
| 2026-04-22 10:15 | 38.73306 | 121.37555 | 19322 ft | 385 kts | 219° |
| 2026-04-22 10:15 | 38.71051 | 121.35654 | 19653 ft | 389 kts | 219° |
| 2026-04-22 10:15 | 38.68801 | 121.33760 | 19686 ft | 390 kts | 218° |
| 2026-04-22 10:15 | 38.66556 | 121.31874 | 19687 ft | 385 kts | 219° |
| 2026-04-22 10:16 | 38.64307 | 121.29982 | 19684 ft | 386 kts | 219° |
| 2026-04-22 10:16 | 38.62065 | 121.28091 | 19683 ft | 386 kts | 219° |
| 2026-04-22 10:16 | 38.59801 | 121.26180 | 19685 ft | 387 kts | 219° |
| 2026-04-22 10:16 | 38.57575 | 121.24288 | 19684 ft | 386 kts | 220° |
| 2026-04-22 10:17 | 38.55455 | 121.22232 | 19684 ft | 383 kts | 225° |
| 2026-04-22 10:17 | 38.53538 | 121.19898 | 19688 ft | 378 kts | 232° |
| 2026-04-22 10:17 | 38.51822 | 121.17361 | 19686 ft | 374 kts | 236° |
| 2026-04-22 10:17 | 38.50222 | 121.14735 | 19682 ft | 377 kts | 238° |
| 2026-04-22 10:18 | 38.48680 | 121.12088 | 19689 ft | 375 kts | 238° |
| 2026-04-22 10:18 | 38.47131 | 121.09392 | 19692 ft | 374 kts | 238° |
| 2026-04-22 10:18 | 38.45599 | 121.06730 | 19685 ft | 375 kts | 238° |
| 2026-04-22 10:18 | 38.44039 | 121.04032 | 19683 ft | 375 kts | 238° |
| 2026-04-22 10:19 | 38.42488 | 121.01365 | 19693 ft | 376 kts | 238° |
| 2026-04-22 10:19 | 38.40939 | 120.98717 | 19684 ft | 372 kts | 238° |
| 2026-04-22 10:19 | 38.39382 | 120.96067 | 19685 ft | 376 kts | 238° |
| 2026-04-22 10:19 | 38.37830 | 120.93432 | 19686 ft | 372 kts | 238° |
| 2026-04-22 10:20 | 38.36270 | 120.90789 | 19685 ft | 374 kts | 238° |
| 2026-04-22 10:20 | 38.34713 | 120.88149 | 19690 ft | 375 kts | 238° |
| 2026-04-22 10:20 | 38.33141 | 120.85487 | 19687 ft | 374 kts | 238° |
| 2026-04-22 10:20 | 38.31565 | 120.82820 | 19684 ft | 377 kts | 238° |
| 2026-04-22 10:21 | 38.29993 | 120.80161 | 19689 ft | 375 kts | 238° |
| 2026-04-22 10:21 | 38.28443 | 120.77545 | 19690 ft | 376 kts | 238° |
| 2026-04-22 10:21 | 38.26825 | 120.74899 | 19684 ft | 376 kts | 236° |
| 2026-04-22 10:21 | 38.25053 | 120.72465 | 19681 ft | 382 kts | 228° |
| 2026-04-22 10:22 | 38.22911 | 120.70411 | 19685 ft | 386 kts | 218° |
| 2026-04-22 10:22 | 38.20551 | 120.68716 | 19692 ft | 393 kts | 213° |
| 2026-04-22 10:22 | 38.18132 | 120.67189 | 19685 ft | 391 kts | 211° |
| 2026-04-22 10:22 | 38.15681 | 120.65722 | 19688 ft | 391 kts | 211° |
| 2026-04-22 10:23 | 38.13222 | 120.64260 | 19685 ft | 388 kts | 211° |
| 2026-04-22 10:23 | 38.10757 | 120.62782 | 19690 ft | 393 kts | 211° |
| 2026-04-22 10:23 | 38.08317 | 120.61305 | 19684 ft | 390 kts | 211° |
| 2026-04-22 10:23 | 38.05860 | 120.59812 | 19690 ft | 390 kts | 211° |
| 2026-04-22 10:24 | 38.03376 | 120.58423 | 19685 ft | 396 kts | 207° |
| 2026-04-22 10:24 | 38.00732 | 120.57389 | 19693 ft | 400 kts | 198° |
| 2026-04-22 10:24 | 37.97982 | 120.56818 | 19685 ft | 405 kts | 192° |
| 2026-04-22 10:24 | 37.95173 | 120.56497 | 19692 ft | 406 kts | 189° |
| 2026-04-22 10:25 | 37.92335 | 120.56293 | 19688 ft | 405 kts | 188° |
| 2026-04-22 10:25 | 37.89501 | 120.56130 | 19680 ft | 408 kts | 188° |
| 2026-04-22 10:25 | 37.85741 | 120.55914 | 19679 ft | 404 kts | 188° |
| 2026-04-22 10:25 | 37.83857 | 120.55800 | 19686 ft | 404 kts | 188° |
| 2026-04-22 10:26 | 37.81079 | 120.55622 | 19697 ft | 407 kts | 189° |
| 2026-04-22 10:26 | 37.78234 | 120.55428 | 19681 ft | 405 kts | 189° |
| 2026-04-22 10:26 | 37.75427 | 120.55231 | 19695 ft | 402 kts | 188° |
| 2026-04-22 10:26 | 37.72615 | 120.55027 | 19676 ft | 405 kts | 189° |
| 2026-04-22 10:27 | 37.69807 | 120.54820 | 19688 ft | 405 kts | 189° |
| 2026-04-22 10:27 | 37.67008 | 120.54537 | 19676 ft | 403 kts | 192° |
| 2026-04-22 10:27 | 37.64252 | 120.53992 | 19683 ft | 399 kts | 197° |
| 2026-04-22 10:27 | 37.61590 | 120.53179 | 19684 ft | 396 kts | 201° |
| 2026-04-22 10:28 | 37.58929 | 120.52208 | 19688 ft | 396 kts | 202° |
| 2026-04-22 10:28 | 37.56321 | 120.51190 | 19688 ft | 394 kts | 203° |
| 2026-04-22 10:28 | 37.53692 | 120.50146 | 19696 ft | 394 kts | 203° |
| 2026-04-22 10:28 | 37.51073 | 120.49107 | 19705 ft | 395 kts | 203° |
| 2026-04-22 10:29 | 37.48445 | 120.48074 | 19700 ft | 394 kts | 203° |
| 2026-04-22 10:29 | 37.45835 | 120.47060 | 19703 ft | 392 kts | 202° |
| 2026-04-22 10:29 | 37.43238 | 120.46062 | 19700 ft | 393 kts | 202° |
| 2026-04-22 10:29 | 37.40617 | 120.45061 | 19699 ft | 394 kts | 202° |
| 2026-04-22 10:30 | 37.37995 | 120.44064 | 19682 ft | 393 kts | 202° |
| 2026-04-22 10:30 | 37.35366 | 120.43068 | 19441 ft | 397 kts | 202° |
| 2026-04-22 10:30 | 37.32712 | 120.42064 | 19039 ft | 396 kts | 202° |
| 2026-04-22 10:30 | 37.30092 | 120.41076 | 18563 ft | 391 kts | 202° |
| 2026-04-22 10:31 | 37.27522 | 120.40108 | 18044 ft | 387 kts | 202° |
| 2026-04-22 10:31 | 37.24956 | 120.39143 | 17488 ft | 385 kts | 201° |
| 2026-04-22 10:31 | 37.22374 | 120.38172 | 16952 ft | 382 kts | 201° |
| 2026-04-22 10:31 | 37.19873 | 120.37229 | 16423 ft | 380 kts | 201° |
| 2026-04-22 10:32 | 37.17338 | 120.36272 | 15858 ft | 378 kts | 201° |
| 2026-04-22 10:32 | 37.14830 | 120.35328 | 15318 ft | 377 kts | 200° |
| 2026-04-22 10:32 | 37.12309 | 120.34377 | 14760 ft | 375 kts | 199° |
| 2026-04-22 10:32 | 37.09845 | 120.33450 | 14223 ft | 373 kts | 198° |
| 2026-04-22 10:33 | 37.07363 | 120.32517 | 13698 ft | 371 kts | 198° |
| 2026-04-22 10:33 | 37.04882 | 120.31589 | 13157 ft | 370 kts | 198° |
| 2026-04-22 10:33 | 37.02452 | 120.30681 | 12619 ft | 369 kts | 198° |
| 2026-04-22 10:33 | 37.00005 | 120.29766 | 12267 ft | 362 kts | 198° |
| 2026-04-22 10:34 | 36.97634 | 120.28850 | 12090 ft | 349 kts | 201° |
| 2026-04-22 10:34 | 36.95467 | 120.27630 | 11935 ft | 335 kts | 213° |
| 2026-04-22 10:34 | 36.93780 | 120.25748 | 11659 ft | 321 kts | 238° |
| 2026-04-22 10:34 | 36.92843 | 120.23279 | 11332 ft | 308 kts | 257° |
| 2026-04-22 10:35 | 36.92278 | 120.20757 | 11081 ft | 300 kts | 259° |
| 2026-04-22 10:35 | 36.91718 | 120.18246 | 10748 ft | 298 kts | 258° |
| 2026-04-22 10:35 | 36.91135 | 120.15783 | 10400 ft | 296 kts | 258° |
| 2026-04-22 10:35 | 36.90532 | 120.13335 | 10048 ft | 295 kts | 257° |
| 2026-04-22 10:36 | 36.89917 | 120.10910 | 9696 ft | 294 kts | 257° |
| 2026-04-22 10:36 | 36.89298 | 120.08518 | 9352 ft | 293 kts | 254° |
| 2026-04-22 10:36 | 36.88433 | 120.06203 | 8996 ft | 295 kts | 238° |
| 2026-04-22 10:36 | 36.86940 | 120.04460 | 8661 ft | 297 kts | 208° |
| 2026-04-22 10:37 | 36.84991 | 120.03780 | 8338 ft | 294 kts | 179° |
| 2026-04-22 10:37 | 36.81103 | 120.04916 | 7645 ft | 285 kts | 159° |
| 2026-04-22 10:37 | 36.79213 | 120.05666 | 7312 ft | 284 kts | 160° |
| 2026-04-22 10:38 | 36.77313 | 120.06399 | 6973 ft | 282 kts | 160° |
| 2026-04-22 10:38 | 36.75455 | 120.07119 | 6637 ft | 280 kts | 159° |
| 2026-04-22 10:38 | 36.73592 | 120.07848 | 6297 ft | 279 kts | 159° |
| 2026-04-22 10:38 | 36.71767 | 120.08572 | 5965 ft | 276 kts | 159° |
| 2026-04-22 10:39 | 36.69924 | 120.09302 | 5636 ft | 274 kts | 159° |
| 2026-04-22 10:39 | 36.68127 | 120.10014 | 5452 ft | 266 kts | 159° |
| 2026-04-22 10:39 | 36.66393 | 120.10680 | 5377 ft | 255 kts | 162° |
| 2026-04-22 10:39 | 36.64689 | 120.10995 | 5296 ft | 248 kts | 180° |
| 2026-04-22 10:40 | 36.63079 | 120.10379 | 5181 ft | 243 kts | 215° |
| 2026-04-22 10:40 | 36.61946 | 120.08797 | 4908 ft | 245 kts | 244° |
| 2026-04-22 10:40 | 36.61362 | 120.06830 | 4639 ft | 242 kts | 254° |
| 2026-04-22 10:40 | 36.60874 | 120.04855 | 4465 ft | 236 kts | 253° |
| 2026-04-22 10:41 | 36.60372 | 120.02930 | 4401 ft | 235 kts | 252° |
| 2026-04-22 10:41 | 36.59719 | 120.01052 | 4338 ft | 237 kts | 238° |
| 2026-04-22 10:41 | 36.58570 | 119.99694 | 4253 ft | 224 kts | 202° |
| 2026-04-22 10:41 | 36.57088 | 119.99352 | 3904 ft | 218 kts | 171° |
| 2026-04-22 10:42 | 36.55623 | 119.99815 | 3400 ft | 220 kts | 156° |
| 2026-04-22 10:42 | 36.54199 | 120.00472 | 3136 ft | 215 kts | 157° |
| 2026-04-22 10:42 | 36.52804 | 120.01033 | 2965 ft | 206 kts | 159° |
| 2026-04-22 10:42 | 36.51484 | 120.01528 | 2956 ft | 189 kts | 159° |
| 2026-04-22 10:43 | 36.50247 | 120.02013 | 2760 ft | 185 kts | 158° |
| 2026-04-22 10:43 | 36.49028 | 120.02503 | 2512 ft | 178 kts | 159° |
| 2026-04-22 10:43 | 36.47908 | 120.02935 | 2304 ft | 162 kts | 160° |
| 2026-04-22 10:43 | 36.46871 | 120.03342 | 2037 ft | 150 kts | 159° |
| 2026-04-22 10:44 | 36.45887 | 120.03734 | 1868 ft | 148 kts | 159° |
| 2026-04-22 10:44 | 36.44911 | 120.04117 | 1655 ft | 148 kts | 160° |
| 2026-04-22 10:44 | 36.43937 | 120.04494 | 1454 ft | 147 kts | 160° |
| 2026-04-22 10:44 | 36.42953 | 120.04882 | 1258 ft | 147 kts | 160° |
| 2026-04-22 10:45 | 36.41991 | 120.05261 | 1060 ft | 145 kts | 161° |
| 2026-04-22 10:45 | 36.41015 | 120.05639 | 862 ft | 145 kts | 161° |
| 2026-04-22 10:45 | 36.40063 | 120.06018 | 673 ft | 144 kts | 161° |
| 2026-04-22 10:45 | 36.39103 | 120.06393 | 473 ft | 143 kts | 162° |
| 2026-04-22 10:46 | 36.38152 | 120.06763 | 273 ft | 143 kts | 163° |
| 2026-04-22 10:46 | 36.37195 | 120.07137 | 83 ft | 142 kts | 163° |
| 2026-04-22 10:46 | 36.36317 | 120.07478 | 31 ft | 105 kts | 163° |
| 2026-04-22 10:46 | 36.35847 | 120.07658 | 37 ft | 45 kts | 162° |
| 2026-04-22 10:47 | 36.35675 | 120.07732 | 41 ft | 18 kts | 150° |
| 2026-04-22 10:47 | 36.35576 | 120.07819 | 43 ft | 16 kts | 140° |
| 2026-04-22 10:47 | 36.35506 | 120.07903 | 44 ft | 11 kts | 135° |
| 2026-04-22 10:47 | 36.35495 | 120.07986 | 44 ft | 10 kts | 59° |
| 2026-04-22 10:48 | 36.35527 | 120.08065 | 44 ft | 9 kts | 71° |
| 2026-04-22 10:48 | 36.35553 | 120.08149 | 44 ft | 9 kts | 51° |
| 2026-04-22 10:48 | 36.35615 | 120.08153 | 44 ft | 9 kts | 341° |
| 2026-04-22 10:48 | 36.35687 | 120.08124 | 44 ft | 12 kts | 342° |
| 2026-04-22 10:49 | 36.35788 | 120.08084 | 42 ft | 17 kts | 342° |
| 2026-04-22 10:49 | 36.35910 | 120.08037 | 39 ft | 18 kts | 342° |
| 2026-04-22 10:49 | 36.36038 | 120.07989 | 37 ft | 15 kts | 343° |
| 2026-04-22 10:49 | 36.36102 | 120.08003 | 36 ft | 10 kts | 51° |
| 2026-04-22 10:50 | 36.36124 | 120.08077 | 37 ft | 8 kts | 83° |
| 2026-04-22 10:50 | 36.36118 | 120.08138 | 38 ft | 7 kts | 102° |
| 2026-04-22 10:50 | 36.36106 | 120.08209 | 39 ft | 10 kts | 102° |
| 2026-04-22 10:50 | 36.36103 | 120.08282 | 39 ft | 7 kts | 58° |
| 2026-04-22 10:51 | 36.36129 | 120.08342 | 38 ft | 7 kts | 45° |
| 2026-04-22 10:51 | 36.36162 | 120.08357 | 38 ft | 2 kts | 12° |
| 2026-04-22 10:51 | 36.36175 | 120.08361 | 38 ft | 0 kts | 12° |